sensor_id;sensor_type;location;lat;lon;timestamp;P1;durP1;ratioP1;P2;durP2;ratioP2
23449;SDS011;11897;45.438;12.128;2022-07-23T00:00:05;10.00;;;8.13;;
23449;SDS011;11897;45.438;12.128;2022-07-23T00:02:32;10.48;;;8.43;;
23449;SDS011;11897;45.438;12.128;2022-07-23T00:04:59;12.02;;;8.90;;
23449;SDS011;11897;45.438;12.128;2022-07-23T00:07:25;10.57;;;7.60;;
23449;SDS011;11897;45.438;12.128;2022-07-23T00:09:54;9.30;;;8.25;;
23449;SDS011;11897;45.438;12.128;2022-07-23T00:12:21;10.60;;;8.77;;
23449;SDS011;11897;45.438;12.128;2022-07-23T00:14:48;12.40;;;8.00;;
23449;SDS011;11897;45.438;12.128;2022-07-23T00:17:15;14.23;;;8.57;;
23449;SDS011;11897;45.438;12.128;2022-07-23T00:19:41;10.90;;;8.52;;
23449;SDS011;11897;45.438;12.128;2022-07-23T00:22:09;11.00;;;7.97;;
23449;SDS011;11897;45.438;12.128;2022-07-23T00:24:35;18.15;;;8.73;;
23449;SDS011;11897;45.438;12.128;2022-07-23T00:27:03;9.75;;;8.15;;
23449;SDS011;11897;45.438;12.128;2022-07-23T00:29:30;9.23;;;7.75;;
23449;SDS011;11897;45.438;12.128;2022-07-23T00:31:57;11.63;;;8.48;;
23449;SDS011;11897;45.438;12.128;2022-07-23T00:34:23;9.73;;;7.97;;
23449;SDS011;11897;45.438;12.128;2022-07-23T00:36:50;11.18;;;7.88;;
23449;SDS011;11897;45.438;12.128;2022-07-23T00:39:18;13.60;;;7.47;;
23449;SDS011;11897;45.438;12.128;2022-07-23T00:41:46;10.15;;;8.13;;
23449;SDS011;11897;45.438;12.128;2022-07-23T00:44:18;17.15;;;8.02;;
23449;SDS011;11897;45.438;12.128;2022-07-23T00:46:50;9.07;;;7.82;;
23449;SDS011;11897;45.438;12.128;2022-07-23T00:49:18;10.43;;;7.72;;
23449;SDS011;11897;45.438;12.128;2022-07-23T00:51:46;13.68;;;7.63;;
23449;SDS011;11897;45.438;12.128;2022-07-23T00:54:14;11.25;;;7.55;;
23449;SDS011;11897;45.438;12.128;2022-07-23T00:56:41;9.63;;;6.80;;
23449;SDS011;11897;45.438;12.128;2022-07-23T00:59:09;10.20;;;7.35;;
23449;SDS011;11897;45.438;12.128;2022-07-23T01:01:37;9.88;;;8.05;;
23449;SDS011;11897;45.438;12.128;2022-07-23T01:04:09;13.90;;;8.30;;
23449;SDS011;11897;45.438;12.128;2022-07-23T01:06:36;10.20;;;7.95;;
23449;SDS011;11897;45.438;12.128;2022-07-23T01:09:03;17.85;;;7.63;;
23449;SDS011;11897;45.438;12.128;2022-07-23T01:11:31;8.80;;;7.68;;
23449;SDS011;11897;45.438;12.128;2022-07-23T01:13:58;9.30;;;6.82;;
23449;SDS011;11897;45.438;12.128;2022-07-23T01:16:25;11.25;;;9.07;;
23449;SDS011;11897;45.438;12.128;2022-07-23T01:18:58;9.77;;;8.35;;
23449;SDS011;11897;45.438;12.128;2022-07-23T01:21:26;11.98;;;8.30;;
23449;SDS011;11897;45.438;12.128;2022-07-23T01:23:54;9.00;;;8.05;;
23449;SDS011;11897;45.438;12.128;2022-07-23T01:26:21;12.75;;;8.02;;
23449;SDS011;11897;45.438;12.128;2022-07-23T01:28:48;10.57;;;8.85;;
23449;SDS011;11897;45.438;12.128;2022-07-23T01:31:15;9.10;;;8.15;;
23449;SDS011;11897;45.438;12.128;2022-07-23T01:33:42;12.25;;;8.43;;
23449;SDS011;11897;45.438;12.128;2022-07-23T01:36:09;9.85;;;7.88;;
23449;SDS011;11897;45.438;12.128;2022-07-23T01:38:36;9.98;;;8.63;;
23449;SDS011;11897;45.438;12.128;2022-07-23T01:41:05;13.30;;;9.10;;
23449;SDS011;11897;45.438;12.128;2022-07-23T01:43:33;11.05;;;8.95;;
23449;SDS011;11897;45.438;12.128;2022-07-23T01:46:01;9.82;;;8.88;;
23449;SDS011;11897;45.438;12.128;2022-07-23T01:48:35;11.88;;;8.82;;
23449;SDS011;11897;45.438;12.128;2022-07-23T01:51:37;9.00;;;8.02;;
23449;SDS011;11897;45.438;12.128;2022-07-23T01:54:24;9.27;;;8.27;;
23449;SDS011;11897;45.438;12.128;2022-07-23T01:56:53;11.20;;;8.70;;
23449;SDS011;11897;45.438;12.128;2022-07-23T01:59:20;12.13;;;8.38;;
23449;SDS011;11897;45.438;12.128;2022-07-23T02:01:47;11.55;;;9.25;;
23449;SDS011;11897;45.438;12.128;2022-07-23T02:04:15;13.00;;;9.70;;
23449;SDS011;11897;45.438;12.128;2022-07-23T02:06:45;9.90;;;8.73;;
23449;SDS011;11897;45.438;12.128;2022-07-23T02:09:15;10.20;;;9.13;;
23449;SDS011;11897;45.438;12.128;2022-07-23T02:11:42;12.77;;;9.38;;
23449;SDS011;11897;45.438;12.128;2022-07-23T02:14:11;12.85;;;9.10;;
23449;SDS011;11897;45.438;12.128;2022-07-23T02:16:40;13.95;;;10.30;;
23449;SDS011;11897;45.438;12.128;2022-07-23T02:19:07;14.75;;;10.20;;
23449;SDS011;11897;45.438;12.128;2022-07-23T02:21:36;11.35;;;9.80;;
23449;SDS011;11897;45.438;12.128;2022-07-23T02:24:03;12.43;;;9.85;;
23449;SDS011;11897;45.438;12.128;2022-07-23T02:26:30;13.13;;;9.50;;
23449;SDS011;11897;45.438;12.128;2022-07-23T02:29:02;12.15;;;9.65;;
23449;SDS011;11897;45.438;12.128;2022-07-23T02:31:30;13.10;;;9.57;;
23449;SDS011;11897;45.438;12.128;2022-07-23T02:33:57;19.15;;;9.90;;
23449;SDS011;11897;45.438;12.128;2022-07-23T02:36:24;13.57;;;10.20;;
23449;SDS011;11897;45.438;12.128;2022-07-23T02:38:53;10.98;;;9.35;;
23449;SDS011;11897;45.438;12.128;2022-07-23T02:41:19;11.52;;;9.77;;
23449;SDS011;11897;45.438;12.128;2022-07-23T02:43:46;13.40;;;10.73;;
23449;SDS011;11897;45.438;12.128;2022-07-23T02:46:14;15.70;;;10.57;;
23449;SDS011;11897;45.438;12.128;2022-07-23T02:48:42;16.20;;;11.30;;
23449;SDS011;11897;45.438;12.128;2022-07-23T02:51:09;16.75;;;13.73;;
23449;SDS011;11897;45.438;12.128;2022-07-23T02:53:42;18.98;;;13.95;;
23449;SDS011;11897;45.438;12.128;2022-07-23T02:56:09;19.23;;;13.15;;
23449;SDS011;11897;45.438;12.128;2022-07-23T02:58:40;19.98;;;14.35;;
23449;SDS011;11897;45.438;12.128;2022-07-23T03:01:07;16.38;;;13.00;;
23449;SDS011;11897;45.438;12.128;2022-07-23T03:03:34;14.98;;;12.48;;
23449;SDS011;11897;45.438;12.128;2022-07-23T03:06:02;15.88;;;12.68;;
23449;SDS011;11897;45.438;12.128;2022-07-23T03:08:29;17.50;;;12.65;;
23449;SDS011;11897;45.438;12.128;2022-07-23T03:10:56;16.45;;;13.02;;
23449;SDS011;11897;45.438;12.128;2022-07-23T03:13:23;16.30;;;12.82;;
23449;SDS011;11897;45.438;12.128;2022-07-23T03:15:52;13.93;;;11.63;;
23449;SDS011;11897;45.438;12.128;2022-07-23T03:18:19;15.90;;;12.63;;
23449;SDS011;11897;45.438;12.128;2022-07-23T03:20:45;16.48;;;12.10;;
23449;SDS011;11897;45.438;12.128;2022-07-23T03:23:14;17.70;;;11.30;;
23449;SDS011;11897;45.438;12.128;2022-07-23T03:25:42;13.43;;;11.38;;
23449;SDS011;11897;45.438;12.128;2022-07-23T03:28:10;17.52;;;12.30;;
23449;SDS011;11897;45.438;12.128;2022-07-23T03:30:37;14.68;;;12.68;;
23449;SDS011;11897;45.438;12.128;2022-07-23T03:33:13;19.52;;;12.15;;
23449;SDS011;11897;45.438;12.128;2022-07-23T03:35:43;15.15;;;12.20;;
23449;SDS011;11897;45.438;12.128;2022-07-23T03:38:19;19.90;;;12.65;;
23449;SDS011;11897;45.438;12.128;2022-07-23T03:40:46;18.83;;;11.98;;
23449;SDS011;11897;45.438;12.128;2022-07-23T03:43:14;16.20;;;12.23;;
23449;SDS011;11897;45.438;12.128;2022-07-23T03:45:43;14.48;;;12.07;;
23449;SDS011;11897;45.438;12.128;2022-07-23T03:48:11;15.35;;;13.13;;
23449;SDS011;11897;45.438;12.128;2022-07-23T03:50:39;15.05;;;10.98;;
23449;SDS011;11897;45.438;12.128;2022-07-23T03:53:07;17.52;;;12.27;;
23449;SDS011;11897;45.438;12.128;2022-07-23T03:55:42;14.88;;;11.18;;
23449;SDS011;11897;45.438;12.128;2022-07-23T03:58:08;16.48;;;10.57;;
23449;SDS011;11897;45.438;12.128;2022-07-23T04:00:35;16.83;;;12.75;;
23449;SDS011;11897;45.438;12.128;2022-07-23T04:03:03;15.68;;;11.68;;
23449;SDS011;11897;45.438;12.128;2022-07-23T04:05:31;14.55;;;11.18;;
23449;SDS011;11897;45.438;12.128;2022-07-23T04:08:05;13.55;;;11.02;;
23449;SDS011;11897;45.438;12.128;2022-07-23T04:10:34;15.27;;;11.82;;
23449;SDS011;11897;45.438;12.128;2022-07-23T04:13:05;15.23;;;10.95;;
23449;SDS011;11897;45.438;12.128;2022-07-23T04:15:31;13.27;;;10.70;;
23449;SDS011;11897;45.438;12.128;2022-07-23T04:17:59;15.35;;;10.88;;
23449;SDS011;11897;45.438;12.128;2022-07-23T04:20:36;17.35;;;10.60;;
23449;SDS011;11897;45.438;12.128;2022-07-23T04:23:03;13.85;;;9.90;;
23449;SDS011;11897;45.438;12.128;2022-07-23T04:25:30;15.25;;;11.18;;
23449;SDS011;11897;45.438;12.128;2022-07-23T04:27:57;16.33;;;10.32;;
23449;SDS011;11897;45.438;12.128;2022-07-23T04:30:27;13.65;;;10.20;;
23449;SDS011;11897;45.438;12.128;2022-07-23T04:32:54;15.15;;;10.60;;
23449;SDS011;11897;45.438;12.128;2022-07-23T04:35:25;14.73;;;10.15;;
23449;SDS011;11897;45.438;12.128;2022-07-23T04:37:58;12.45;;;9.80;;
23449;SDS011;11897;45.438;12.128;2022-07-23T04:40:26;11.38;;;9.48;;
23449;SDS011;11897;45.438;12.128;2022-07-23T04:42:54;18.88;;;12.05;;
23449;SDS011;11897;45.438;12.128;2022-07-23T04:45:22;14.32;;;11.45;;
23449;SDS011;11897;45.438;12.128;2022-07-23T04:47:51;19.83;;;11.55;;
23449;SDS011;11897;45.438;12.128;2022-07-23T04:50:19;21.17;;;11.13;;
23449;SDS011;11897;45.438;12.128;2022-07-23T04:52:47;14.13;;;11.48;;
23449;SDS011;11897;45.438;12.128;2022-07-23T04:55:18;12.75;;;9.82;;
23449;SDS011;11897;45.438;12.128;2022-07-23T04:57:45;13.18;;;10.07;;
23449;SDS011;11897;45.438;12.128;2022-07-23T05:00:13;15.88;;;10.10;;
23449;SDS011;11897;45.438;12.128;2022-07-23T05:02:40;10.70;;;9.38;;
23449;SDS011;11897;45.438;12.128;2022-07-23T05:05:09;11.85;;;10.07;;
23449;SDS011;11897;45.438;12.128;2022-07-23T05:07:37;12.43;;;9.73;;
23449;SDS011;11897;45.438;12.128;2022-07-23T05:10:07;12.30;;;9.88;;
23449;SDS011;11897;45.438;12.128;2022-07-23T05:12:37;12.57;;;10.90;;
23449;SDS011;11897;45.438;12.128;2022-07-23T05:15:06;10.40;;;9.32;;
23449;SDS011;11897;45.438;12.128;2022-07-23T05:17:33;13.27;;;9.90;;
23449;SDS011;11897;45.438;12.128;2022-07-23T05:20:04;12.23;;;9.15;;
23449;SDS011;11897;45.438;12.128;2022-07-23T05:22:32;13.18;;;9.65;;
23449;SDS011;11897;45.438;12.128;2022-07-23T05:24:59;12.32;;;10.43;;
23449;SDS011;11897;45.438;12.128;2022-07-23T05:27:26;14.35;;;10.02;;
23449;SDS011;11897;45.438;12.128;2022-07-23T05:29:55;22.40;;;10.68;;
23449;SDS011;11897;45.438;12.128;2022-07-23T05:32:22;13.23;;;9.93;;
23449;SDS011;11897;45.438;12.128;2022-07-23T05:34:58;13.82;;;10.45;;
23449;SDS011;11897;45.438;12.128;2022-07-23T05:37:25;12.57;;;10.82;;
23449;SDS011;11897;45.438;12.128;2022-07-23T05:39:53;11.48;;;9.88;;
23449;SDS011;11897;45.438;12.128;2022-07-23T05:42:22;14.90;;;11.05;;
23449;SDS011;11897;45.438;12.128;2022-07-23T05:44:49;16.23;;;10.55;;
23449;SDS011;11897;45.438;12.128;2022-07-23T05:47:16;13.30;;;11.13;;
23449;SDS011;11897;45.438;12.128;2022-07-23T05:49:43;15.60;;;11.32;;
23449;SDS011;11897;45.438;12.128;2022-07-23T05:52:24;12.35;;;11.00;;
23449;SDS011;11897;45.438;12.128;2022-07-23T05:55:11;14.68;;;10.98;;
23449;SDS011;11897;45.438;12.128;2022-07-23T05:57:41;11.88;;;10.13;;
23449;SDS011;11897;45.438;12.128;2022-07-23T06:00:09;16.77;;;11.30;;
23449;SDS011;11897;45.438;12.128;2022-07-23T06:02:44;13.40;;;10.00;;
23449;SDS011;11897;45.438;12.128;2022-07-23T06:05:14;15.02;;;11.77;;
23449;SDS011;11897;45.438;12.128;2022-07-23T06:07:44;13.18;;;10.07;;
23449;SDS011;11897;45.438;12.128;2022-07-23T06:10:15;11.27;;;10.07;;
23449;SDS011;11897;45.438;12.128;2022-07-23T06:12:42;14.65;;;10.20;;
23449;SDS011;11897;45.438;12.128;2022-07-23T06:15:09;19.67;;;11.48;;
23449;SDS011;11897;45.438;12.128;2022-07-23T06:17:36;14.73;;;10.13;;
23449;SDS011;11897;45.438;12.128;2022-07-23T06:20:04;12.25;;;10.43;;
23449;SDS011;11897;45.438;12.128;2022-07-23T06:22:37;15.45;;;10.55;;
23449;SDS011;11897;45.438;12.128;2022-07-23T06:25:04;12.13;;;9.88;;
23449;SDS011;11897;45.438;12.128;2022-07-23T06:27:33;10.50;;;9.05;;
23449;SDS011;11897;45.438;12.128;2022-07-23T06:30:00;15.68;;;10.27;;
23449;SDS011;11897;45.438;12.128;2022-07-23T06:32:27;13.25;;;9.25;;
23449;SDS011;11897;45.438;12.128;2022-07-23T06:34:53;11.38;;;10.15;;
23449;SDS011;11897;45.438;12.128;2022-07-23T06:37:20;13.07;;;10.02;;
23449;SDS011;11897;45.438;12.128;2022-07-23T06:39:46;17.05;;;10.55;;
23449;SDS011;11897;45.438;12.128;2022-07-23T06:42:16;16.30;;;10.63;;
23449;SDS011;11897;45.438;12.128;2022-07-23T06:44:45;17.15;;;10.52;;
23449;SDS011;11897;45.438;12.128;2022-07-23T06:47:15;11.60;;;9.88;;
23449;SDS011;11897;45.438;12.128;2022-07-23T06:49:42;16.02;;;10.35;;
23449;SDS011;11897;45.438;12.128;2022-07-23T06:52:10;14.98;;;10.60;;
23449;SDS011;11897;45.438;12.128;2022-07-23T06:54:37;15.60;;;10.18;;
23449;SDS011;11897;45.438;12.128;2022-07-23T06:57:04;10.55;;;9.40;;
23449;SDS011;11897;45.438;12.128;2022-07-23T06:59:31;12.52;;;9.18;;
23449;SDS011;11897;45.438;12.128;2022-07-23T07:02:03;14.15;;;9.77;;
23449;SDS011;11897;45.438;12.128;2022-07-23T07:04:31;13.10;;;10.05;;
23449;SDS011;11897;45.438;12.128;2022-07-23T07:06:57;14.45;;;9.68;;
23449;SDS011;11897;45.438;12.128;2022-07-23T07:09:24;14.05;;;9.85;;
23449;SDS011;11897;45.438;12.128;2022-07-23T07:11:50;14.02;;;8.85;;
23449;SDS011;11897;45.438;12.128;2022-07-23T07:14:17;11.40;;;8.93;;
23449;SDS011;11897;45.438;12.128;2022-07-23T07:16:44;10.85;;;9.00;;
23449;SDS011;11897;45.438;12.128;2022-07-23T07:19:12;12.18;;;9.00;;
23449;SDS011;11897;45.438;12.128;2022-07-23T07:21:39;10.38;;;9.00;;
23449;SDS011;11897;45.438;12.128;2022-07-23T07:24:05;14.10;;;9.60;;
23449;SDS011;11897;45.438;12.128;2022-07-23T07:26:32;13.75;;;9.02;;
23449;SDS011;11897;45.438;12.128;2022-07-23T07:28:59;9.20;;;8.05;;
23449;SDS011;11897;45.438;12.128;2022-07-23T07:31:26;13.13;;;8.63;;
23449;SDS011;11897;45.438;12.128;2022-07-23T07:33:53;15.15;;;8.38;;
23449;SDS011;11897;45.438;12.128;2022-07-23T07:36:25;13.63;;;8.25;;
23449;SDS011;11897;45.438;12.128;2022-07-23T07:38:53;12.93;;;8.40;;
23449;SDS011;11897;45.438;12.128;2022-07-23T07:41:20;10.27;;;8.02;;
23449;SDS011;11897;45.438;12.128;2022-07-23T07:43:49;9.20;;;8.10;;
23449;SDS011;11897;45.438;12.128;2022-07-23T07:46:16;9.73;;;8.52;;
23449;SDS011;11897;45.438;12.128;2022-07-23T07:48:42;10.02;;;8.48;;
23449;SDS011;11897;45.438;12.128;2022-07-23T07:51:09;9.00;;;7.90;;
23449;SDS011;11897;45.438;12.128;2022-07-23T07:53:37;9.43;;;7.38;;
23449;SDS011;11897;45.438;12.128;2022-07-23T07:56:04;17.38;;;7.85;;
23449;SDS011;11897;45.438;12.128;2022-07-23T07:58:30;11.27;;;7.93;;
23449;SDS011;11897;45.438;12.128;2022-07-23T08:00:57;8.07;;;7.25;;
23449;SDS011;11897;45.438;12.128;2022-07-23T08:03:24;9.63;;;7.10;;
23449;SDS011;11897;45.438;12.128;2022-07-23T08:05:51;10.57;;;7.00;;
23449;SDS011;11897;45.438;12.128;2022-07-23T08:08:18;7.70;;;6.43;;
23449;SDS011;11897;45.438;12.128;2022-07-23T08:10:47;10.30;;;7.97;;
23449;SDS011;11897;45.438;12.128;2022-07-23T08:13:14;9.65;;;7.10;;
23449;SDS011;11897;45.438;12.128;2022-07-23T08:15:41;8.98;;;7.72;;
23449;SDS011;11897;45.438;12.128;2022-07-23T08:18:08;9.15;;;8.05;;
23449;SDS011;11897;45.438;12.128;2022-07-23T08:20:38;10.60;;;7.82;;
23449;SDS011;11897;45.438;12.128;2022-07-23T08:23:07;10.68;;;7.43;;
23449;SDS011;11897;45.438;12.128;2022-07-23T08:25:34;10.20;;;7.07;;
23449;SDS011;11897;45.438;12.128;2022-07-23T08:28:05;8.43;;;6.65;;
23449;SDS011;11897;45.438;12.128;2022-07-23T08:30:32;7.57;;;6.70;;
23449;SDS011;11897;45.438;12.128;2022-07-23T08:33:00;7.20;;;6.47;;
23449;SDS011;11897;45.438;12.128;2022-07-23T08:35:28;11.63;;;7.88;;
23449;SDS011;11897;45.438;12.128;2022-07-23T08:37:56;8.70;;;7.40;;
23449;SDS011;11897;45.438;12.128;2022-07-23T08:40:27;7.65;;;6.57;;
23449;SDS011;11897;45.438;12.128;2022-07-23T08:42:54;7.93;;;6.25;;
23449;SDS011;11897;45.438;12.128;2022-07-23T08:45:22;10.27;;;7.97;;
23449;SDS011;11897;45.438;12.128;2022-07-23T08:47:49;8.23;;;6.22;;
23449;SDS011;11897;45.438;12.128;2022-07-23T08:50:17;7.43;;;6.60;;
23449;SDS011;11897;45.438;12.128;2022-07-23T08:52:43;8.43;;;7.05;;
23449;SDS011;11897;45.438;12.128;2022-07-23T08:55:10;7.30;;;6.35;;
23449;SDS011;11897;45.438;12.128;2022-07-23T08:57:37;7.30;;;6.60;;
23449;SDS011;11897;45.438;12.128;2022-07-23T09:00:06;8.02;;;6.10;;
23449;SDS011;11897;45.438;12.128;2022-07-23T09:02:39;7.22;;;5.78;;
23449;SDS011;11897;45.438;12.128;2022-07-23T09:05:06;5.75;;;5.25;;
23449;SDS011;11897;45.438;12.128;2022-07-23T09:07:33;6.82;;;6.13;;
23449;SDS011;11897;45.438;12.128;2022-07-23T09:10:06;6.35;;;5.60;;
23449;SDS011;11897;45.438;12.128;2022-07-23T09:12:33;7.20;;;5.47;;
23449;SDS011;11897;45.438;12.128;2022-07-23T09:15:03;10.63;;;6.72;;
23449;SDS011;11897;45.438;12.128;2022-07-23T09:17:36;7.95;;;6.07;;
23449;SDS011;11897;45.438;12.128;2022-07-23T09:20:14;8.75;;;5.65;;
23449;SDS011;11897;45.438;12.128;2022-07-23T09:22:42;7.28;;;6.25;;
23449;SDS011;11897;45.438;12.128;2022-07-23T09:25:12;6.80;;;6.10;;
23449;SDS011;11897;45.438;12.128;2022-07-23T09:27:53;7.28;;;5.85;;
23449;SDS011;11897;45.438;12.128;2022-07-23T09:30:20;9.48;;;6.43;;
23449;SDS011;11897;45.438;12.128;2022-07-23T09:33:06;7.20;;;6.25;;
23449;SDS011;11897;45.438;12.128;2022-07-23T09:38:18;5.38;;;4.85;;
23449;SDS011;11897;45.438;12.128;2022-07-23T09:40:45;7.30;;;4.85;;
23449;SDS011;11897;45.438;12.128;2022-07-23T09:43:12;5.07;;;4.28;;
23449;SDS011;11897;45.438;12.128;2022-07-23T09:45:39;6.05;;;4.65;;
23449;SDS011;11897;45.438;12.128;2022-07-23T09:48:12;5.25;;;4.75;;
23449;SDS011;11897;45.438;12.128;2022-07-23T09:50:40;5.50;;;4.57;;
23449;SDS011;11897;45.438;12.128;2022-07-23T09:53:10;5.38;;;4.22;;
23449;SDS011;11897;45.438;12.128;2022-07-23T09:55:54;5.30;;;4.45;;
23449;SDS011;11897;45.438;12.128;2022-07-23T09:58:24;6.00;;;4.72;;
23449;SDS011;11897;45.438;12.128;2022-07-23T10:00:52;5.85;;;5.18;;
23449;SDS011;11897;45.438;12.128;2022-07-23T10:03:19;5.55;;;4.78;;
23449;SDS011;11897;45.438;12.128;2022-07-23T10:06:20;5.72;;;4.43;;
23449;SDS011;11897;45.438;12.128;2022-07-23T10:09:08;6.18;;;4.88;;
23449;SDS011;11897;45.438;12.128;2022-07-23T10:12:13;5.18;;;4.43;;
23449;SDS011;11897;45.438;12.128;2022-07-23T10:14:53;4.57;;;4.03;;
23449;SDS011;11897;45.438;12.128;2022-07-23T10:17:20;5.40;;;4.28;;
23449;SDS011;11897;45.438;12.128;2022-07-23T10:19:48;7.15;;;4.50;;
23449;SDS011;11897;45.438;12.128;2022-07-23T10:22:15;6.25;;;4.13;;
23449;SDS011;11897;45.438;12.128;2022-07-23T10:24:47;5.60;;;4.10;;
23449;SDS011;11897;45.438;12.128;2022-07-23T10:27:29;5.28;;;4.78;;
23449;SDS011;11897;45.438;12.128;2022-07-23T10:30:00;4.82;;;4.32;;
23449;SDS011;11897;45.438;12.128;2022-07-23T10:32:32;5.20;;;4.28;;
23449;SDS011;11897;45.438;12.128;2022-07-23T10:35:07;4.40;;;4.00;;
23449;SDS011;11897;45.438;12.128;2022-07-23T10:37:37;5.28;;;4.10;;
23449;SDS011;11897;45.438;12.128;2022-07-23T10:40:08;7.07;;;4.65;;
23449;SDS011;11897;45.438;12.128;2022-07-23T10:42:37;6.80;;;4.47;;
23449;SDS011;11897;45.438;12.128;2022-07-23T10:47:45;5.10;;;4.53;;
23449;SDS011;11897;45.438;12.128;2022-07-23T10:50:19;4.95;;;4.45;;
23449;SDS011;11897;45.438;12.128;2022-07-23T10:55:40;4.90;;;4.40;;
23449;SDS011;11897;45.438;12.128;2022-07-23T10:58:08;5.15;;;4.28;;
23449;SDS011;11897;45.438;12.128;2022-07-23T11:00:35;5.53;;;4.72;;
23449;SDS011;11897;45.438;12.128;2022-07-23T11:03:03;6.43;;;4.78;;
23449;SDS011;11897;45.438;12.128;2022-07-23T11:05:40;6.32;;;5.03;;
23449;SDS011;11897;45.438;12.128;2022-07-23T11:08:11;5.80;;;4.68;;
23449;SDS011;11897;45.438;12.128;2022-07-23T11:10:41;5.40;;;4.80;;
23449;SDS011;11897;45.438;12.128;2022-07-23T11:16:08;5.28;;;4.72;;
23449;SDS011;11897;45.438;12.128;2022-07-23T11:18:55;11.85;;;4.70;;
23449;SDS011;11897;45.438;12.128;2022-07-23T11:24:06;5.05;;;4.55;;
23449;SDS011;11897;45.438;12.128;2022-07-23T11:26:46;6.03;;;4.80;;
23449;SDS011;11897;45.438;12.128;2022-07-23T11:32:03;5.28;;;4.03;;
23449;SDS011;11897;45.438;12.128;2022-07-23T11:34:30;5.30;;;4.75;;
23449;SDS011;11897;45.438;12.128;2022-07-23T11:36:59;4.47;;;4.07;;
23449;SDS011;11897;45.438;12.128;2022-07-23T11:39:27;6.68;;;5.32;;
23449;SDS011;11897;45.438;12.128;2022-07-23T11:41:54;10.15;;;4.70;;
23449;SDS011;11897;45.438;12.128;2022-07-23T11:44:24;6.88;;;5.13;;
23449;SDS011;11897;45.438;12.128;2022-07-23T11:46:56;7.65;;;4.93;;
23449;SDS011;11897;45.438;12.128;2022-07-23T11:49:24;6.55;;;4.50;;
23449;SDS011;11897;45.438;12.128;2022-07-23T11:52:02;5.65;;;5.07;;
23449;SDS011;11897;45.438;12.128;2022-07-23T11:54:30;5.95;;;4.70;;
23449;SDS011;11897;45.438;12.128;2022-07-23T11:56:56;5.45;;;4.90;;
23449;SDS011;11897;45.438;12.128;2022-07-23T11:59:23;5.55;;;4.93;;
23449;SDS011;11897;45.438;12.128;2022-07-23T12:01:57;5.22;;;4.63;;
23449;SDS011;11897;45.438;12.128;2022-07-23T12:04:28;5.93;;;5.07;;
23449;SDS011;11897;45.438;12.128;2022-07-23T12:07:03;7.10;;;5.47;;
23449;SDS011;11897;45.438;12.128;2022-07-23T12:09:29;8.60;;;5.35;;
23449;SDS011;11897;45.438;12.128;2022-07-23T12:11:57;5.05;;;4.57;;
23449;SDS011;11897;45.438;12.128;2022-07-23T12:14:24;5.60;;;4.90;;
23449;SDS011;11897;45.438;12.128;2022-07-23T12:19:34;5.07;;;4.32;;
23449;SDS011;11897;45.438;12.128;2022-07-23T12:22:01;6.15;;;5.38;;
23449;SDS011;11897;45.438;12.128;2022-07-23T12:24:28;5.18;;;4.68;;
23449;SDS011;11897;45.438;12.128;2022-07-23T12:27:07;10.63;;;6.57;;
23449;SDS011;11897;45.438;12.128;2022-07-23T12:29:34;6.85;;;6.15;;
23449;SDS011;11897;45.438;12.128;2022-07-23T12:32:01;7.80;;;6.63;;
23449;SDS011;11897;45.438;12.128;2022-07-23T12:34:28;6.65;;;5.57;;
23449;SDS011;11897;45.438;12.128;2022-07-23T12:36:56;9.48;;;6.38;;
23449;SDS011;11897;45.438;12.128;2022-07-23T12:39:30;11.57;;;7.45;;
23449;SDS011;11897;45.438;12.128;2022-07-23T12:41:57;10.95;;;7.75;;
23449;SDS011;11897;45.438;12.128;2022-07-23T12:44:27;9.85;;;7.68;;
23449;SDS011;11897;45.438;12.128;2022-07-23T12:46:54;13.13;;;7.65;;
23449;SDS011;11897;45.438;12.128;2022-07-23T12:49:25;9.25;;;7.50;;
23449;SDS011;11897;45.438;12.128;2022-07-23T12:51:52;11.23;;;7.65;;
23449;SDS011;11897;45.438;12.128;2022-07-23T12:54:26;8.95;;;7.30;;
23449;SDS011;11897;45.438;12.128;2022-07-23T12:56:53;11.25;;;8.55;;
23449;SDS011;11897;45.438;12.128;2022-07-23T12:59:20;7.43;;;6.65;;
23449;SDS011;11897;45.438;12.128;2022-07-23T13:01:53;8.00;;;6.43;;
23449;SDS011;11897;45.438;12.128;2022-07-23T13:04:21;11.13;;;7.75;;
23449;SDS011;11897;45.438;12.128;2022-07-23T13:06:49;11.57;;;6.13;;
23449;SDS011;11897;45.438;12.128;2022-07-23T13:09:17;6.65;;;6.05;;
23449;SDS011;11897;45.438;12.128;2022-07-23T13:11:46;8.25;;;7.35;;
23449;SDS011;11897;45.438;12.128;2022-07-23T13:14:14;9.52;;;7.05;;
23449;SDS011;11897;45.438;12.128;2022-07-23T13:16:41;9.63;;;6.95;;
23449;SDS011;11897;45.438;12.128;2022-07-23T13:19:08;8.75;;;7.07;;
23449;SDS011;11897;45.438;12.128;2022-07-23T13:21:35;7.93;;;6.32;;
23449;SDS011;11897;45.438;12.128;2022-07-23T13:24:08;9.52;;;7.57;;
23449;SDS011;11897;45.438;12.128;2022-07-23T13:26:35;9.30;;;6.70;;
23449;SDS011;11897;45.438;12.128;2022-07-23T13:29:03;8.40;;;6.82;;
23449;SDS011;11897;45.438;12.128;2022-07-23T13:31:29;9.38;;;6.95;;
23449;SDS011;11897;45.438;12.128;2022-07-23T13:33:56;8.88;;;6.55;;
23449;SDS011;11897;45.438;12.128;2022-07-23T13:36:23;8.70;;;6.97;;
23449;SDS011;11897;45.438;12.128;2022-07-23T13:38:50;8.18;;;6.75;;
23449;SDS011;11897;45.438;12.128;2022-07-23T13:41:17;7.82;;;6.28;;
23449;SDS011;11897;45.438;12.128;2022-07-23T13:43:44;10.48;;;7.03;;
23449;SDS011;11897;45.438;12.128;2022-07-23T13:46:12;8.95;;;6.45;;
23449;SDS011;11897;45.438;12.128;2022-07-23T13:48:38;9.02;;;6.28;;
23449;SDS011;11897;45.438;12.128;2022-07-23T13:51:05;12.98;;;6.30;;
23449;SDS011;11897;45.438;12.128;2022-07-23T13:53:33;10.50;;;6.18;;
23449;SDS011;11897;45.438;12.128;2022-07-23T13:56:00;6.07;;;5.47;;
23449;SDS011;11897;45.438;12.128;2022-07-23T13:58:26;6.53;;;5.40;;
23449;SDS011;11897;45.438;12.128;2022-07-23T14:00:53;5.95;;;5.13;;
23449;SDS011;11897;45.438;12.128;2022-07-23T14:03:22;4.80;;;4.28;;
23449;SDS011;11897;45.438;12.128;2022-07-23T14:05:49;4.30;;;3.90;;
23449;SDS011;11897;45.438;12.128;2022-07-23T14:08:16;4.05;;;3.70;;
23449;SDS011;11897;45.438;12.128;2022-07-23T14:10:45;3.72;;;3.22;;
23449;SDS011;11897;45.438;12.128;2022-07-23T14:13:11;4.72;;;3.40;;
23449;SDS011;11897;45.438;12.128;2022-07-23T14:15:39;2.90;;;2.70;;
23449;SDS011;11897;45.438;12.128;2022-07-23T14:18:06;3.95;;;3.00;;
23449;SDS011;11897;45.438;12.128;2022-07-23T14:20:38;4.68;;;3.17;;
23449;SDS011;11897;45.438;12.128;2022-07-23T14:23:05;3.40;;;2.80;;
23449;SDS011;11897;45.438;12.128;2022-07-23T14:25:31;3.47;;;2.88;;
23449;SDS011;11897;45.438;12.128;2022-07-23T14:27:59;2.92;;;2.47;;
23449;SDS011;11897;45.438;12.128;2022-07-23T14:30:26;2.70;;;2.28;;
23449;SDS011;11897;45.438;12.128;2022-07-23T14:32:53;4.13;;;3.15;;
23449;SDS011;11897;45.438;12.128;2022-07-23T14:35:20;5.47;;;2.72;;
23449;SDS011;11897;45.438;12.128;2022-07-23T14:37:48;3.35;;;2.38;;
23449;SDS011;11897;45.438;12.128;2022-07-23T14:40:15;4.60;;;2.22;;
23449;SDS011;11897;45.438;12.128;2022-07-23T14:42:42;1.98;;;1.77;;
23449;SDS011;11897;45.438;12.128;2022-07-23T14:45:11;2.13;;;1.80;;
23449;SDS011;11897;45.438;12.128;2022-07-23T14:47:38;3.67;;;1.70;;
23449;SDS011;11897;45.438;12.128;2022-07-23T14:50:05;2.28;;;1.83;;
23449;SDS011;11897;45.438;12.128;2022-07-23T14:52:32;2.00;;;1.73;;